createdAt,value
2023-08-31T00:00:38.628Z,96864.13
2023-08-31T00:03:06.357Z,96870.97
2023-08-31T00:05:32.990Z,96878.69
2023-08-31T00:07:59.812Z,96870.97
2023-08-31T00:10:26.990Z,96881.25
2023-08-31T00:12:53.568Z,96875.28
2023-08-31T00:15:20.144Z,96873.53
2023-08-31T00:17:46.746Z,96876.97
2023-08-31T00:20:13.944Z,96879.53
2023-08-31T00:22:40.541Z,96876.97
2023-08-31T00:25:09.512Z,96870.97
2023-08-31T00:27:38.176Z,96876.09
2023-08-31T00:30:10.777Z,96877.84
2023-08-31T00:32:37.451Z,96880.41
2023-08-31T00:35:04.928Z,96875.25
2023-08-31T00:37:31.512Z,96881.25
2023-08-31T00:39:58.033Z,96878.69
2023-08-31T00:42:25.983Z,96878.69
2023-08-31T00:44:52.699Z,96876.09
2023-08-31T00:47:20.164Z,96881.25
2023-08-31T00:49:46.721Z,96878.69
2023-08-31T00:52:13.246Z,96880.41
2023-08-31T00:54:39.883Z,96888.97
2023-08-31T00:57:06.564Z,96891.53
2023-08-31T00:59:33.313Z,96894.09
2023-08-31T01:02:05.857Z,96896.69
2023-08-31T01:04:39.595Z,96902.69
2023-08-31T01:07:25.686Z,96897.56
2023-08-31T01:09:56.215Z,96895.84
2023-08-31T01:12:30.744Z,96897.56
2023-08-31T01:15:03.267Z,96880.38
2023-08-31T01:17:30.885Z,96893.28
2023-08-31T01:20:00.104Z,96892.41
2023-08-31T01:22:45.386Z,96899.25
2023-08-31T01:25:12.116Z,96898.44
2023-08-31T01:27:38.831Z,96892.41
2023-08-31T01:30:06.359Z,96897.56
2023-08-31T01:32:33.088Z,96886.41
2023-08-31T01:34:59.748Z,96899.25
2023-08-31T01:37:41.681Z,96900.13
2023-08-31T01:40:30.345Z,96900.13
2023-08-31T01:42:56.858Z,96915.56
2023-08-31T01:45:23.637Z,96921.59
2023-08-31T01:47:50.337Z,96918.13
2023-08-31T01:50:16.937Z,96912.13
2023-08-31T01:52:43.498Z,96900.13
2023-08-31T01:55:10.145Z,96891.53
2023-08-31T01:57:36.732Z,96892.41
2023-08-31T02:00:05.476Z,96899.25
2023-08-31T02:02:32.262Z,96904.41
2023-08-31T02:05:02.497Z,96898.44
2023-08-31T02:07:29.388Z,96891.53
2023-08-31T02:09:55.973Z,96905.28
2023-08-31T02:12:22.642Z,96905.28
2023-08-31T02:14:49.232Z,96905.28
2023-08-31T02:17:15.765Z,96895.84
2023-08-31T02:19:42.289Z,96891.53
2023-08-31T02:22:08.949Z,96894.97
2023-08-31T02:24:35.497Z,96900.13
2023-08-31T02:27:02.008Z,96903.56
2023-08-31T02:29:29.128Z,96906.97
2023-08-31T02:31:55.714Z,96912.13
2023-08-31T02:34:22.294Z,96915.56
2023-08-31T02:36:48.807Z,96906.97
2023-08-31T02:39:16.943Z,96912.13
2023-08-31T02:41:43.488Z,96928.41
2023-08-31T02:44:10.039Z,96928.41
2023-08-31T02:46:36.649Z,96924.13
2023-08-31T02:49:03.246Z,96923.25
2023-08-31T02:51:29.776Z,96922.41
2023-08-31T02:53:56.361Z,96921.56
2023-08-31T02:56:22.933Z,96922.41
2023-08-31T02:58:49.482Z,96934.44
2023-08-31T03:01:16.483Z,96935.25
2023-08-31T03:03:43.458Z,96939.56
2023-08-31T03:06:10.343Z,96930.97
2023-08-31T03:08:37.439Z,96934.41
2023-08-31T03:11:04.683Z,96934.41
2023-08-31T03:13:32.200Z,96940.41
2023-08-31T03:15:59.000Z,96934.41
2023-08-31T03:18:25.617Z,96937.00
2023-08-31T03:20:52.262Z,96942.13
2023-08-31T03:23:18.774Z,96934.41
2023-08-31T03:25:45.333Z,96938.69
2023-08-31T03:28:11.917Z,96942.94
2023-08-31T03:30:38.572Z,96949.84
2023-08-31T03:33:05.595Z,96947.25
2023-08-31T03:35:33.442Z,96948.97
2023-08-31T03:38:00.329Z,96954.97
2023-08-31T03:40:26.873Z,96959.25
2023-08-31T03:42:54.989Z,96960.13
2023-08-31T03:45:21.754Z,96953.25
2023-08-31T03:47:48.385Z,96971.25
2023-08-31T03:50:15.007Z,96963.50
2023-08-31T03:52:41.582Z,96977.25
2023-08-31T03:55:08.282Z,96977.25
2023-08-31T03:57:34.783Z,96975.53
2023-08-31T04:00:01.313Z,96978.94
2023-08-31T04:02:28.400Z,96978.13
2023-08-31T04:04:55.054Z,96981.53
2023-08-31T04:07:21.622Z,96983.25
2023-08-31T04:09:48.249Z,96989.25
2023-08-31T04:12:14.797Z,96985.84
2023-08-31T04:14:41.352Z,96987.53
2023-08-31T04:17:08.005Z,96993.56
2023-08-31T04:19:34.616Z,96998.69
2023-08-31T04:22:01.151Z,97005.56
2023-08-31T04:24:28.150Z,97006.41
2023-08-31T04:26:54.638Z,97023.56
2023-08-31T04:29:21.212Z,97021.84
2023-08-31T04:31:47.759Z,97031.28
2023-08-31T04:34:14.669Z,97023.53
2023-08-31T04:36:41.220Z,97020.97
2023-08-31T04:39:08.796Z,97029.56
2023-08-31T04:41:35.407Z,97032.13
2023-08-31T04:44:01.983Z,97028.69
2023-08-31T04:46:28.559Z,97036.41
2023-08-31T04:48:55.130Z,97044.97
2023-08-31T04:51:33.539Z,97041.53
2023-08-31T04:54:00.638Z,97045.81
2023-08-31T04:56:31.546Z,97051.84
2023-08-31T04:58:58.111Z,97047.56
2023-08-31T05:01:24.651Z,97052.69
2023-08-31T05:03:51.359Z,97054.41
2023-08-31T05:06:17.946Z,97050.97
2023-08-31T05:08:44.621Z,97065.56
2023-08-31T05:11:11.125Z,97063.81
2023-08-31T05:13:38.727Z,97074.97
2023-08-31T05:16:05.278Z,97062.97
2023-08-31T05:18:31.818Z,97064.69
2023-08-31T05:20:58.342Z,97063.78
2023-08-31T05:23:24.888Z,97088.69
2023-08-31T05:25:51.428Z,97094.69
2023-08-31T05:28:18.156Z,97076.63
2023-08-31T05:31:04.213Z,97092.97
2023-08-31T05:33:34.828Z,97092.09
2023-08-31T05:36:03.135Z,97095.56
2023-08-31T05:38:29.761Z,97106.72
2023-08-31T05:41:04.606Z,97106.72
2023-08-31T05:43:31.127Z,97112.69
2023-08-31T05:45:57.729Z,97108.41
2023-08-31T05:48:24.359Z,97108.41
2023-08-31T05:50:51.261Z,97117.00
2023-08-31T05:53:17.810Z,97111.84
2023-08-31T05:55:44.307Z,97117.00
2023-08-31T05:58:10.865Z,97107.50
2023-08-31T06:00:37.430Z,97114.44
2023-08-31T06:03:06.698Z,97112.69
2023-08-31T06:05:33.865Z,97111.84
2023-08-31T06:08:00.409Z,97113.56
2023-08-31T06:10:26.944Z,97099.78
2023-08-31T06:12:53.914Z,97118.72
2023-08-31T06:15:20.502Z,97112.72
2023-08-31T06:17:47.049Z,97111.00
2023-08-31T06:20:13.624Z,97110.13
2023-08-31T06:22:40.157Z,97116.13
2023-08-31T06:25:07.952Z,97123.84
2023-08-31T06:27:34.532Z,97119.59
2023-08-31T06:30:01.141Z,97113.56
2023-08-31T06:32:28.693Z,97105.84
2023-08-31T06:34:55.255Z,97113.56
2023-08-31T06:37:21.805Z,97118.72
2023-08-31T06:39:48.372Z,97129.00
2023-08-31T06:42:14.920Z,97140.16
2023-08-31T06:44:41.447Z,97140.16
2023-08-31T06:47:08.079Z,97142.72
2023-08-31T06:49:35.524Z,97130.72
2023-08-31T06:52:04.431Z,97135.00
2023-08-31T06:54:33.253Z,97134.09
2023-08-31T06:56:59.881Z,97141.88
2023-08-31T06:59:26.409Z,97153.03
2023-08-31T07:01:52.919Z,97155.59
2023-08-31T07:04:19.512Z,97168.44
2023-08-31T07:06:46.079Z,97162.41
2023-08-31T07:09:12.738Z,97173.59
2023-08-31T07:11:40.460Z,97175.28
2023-08-31T07:14:07.046Z,97177.00
2023-08-31T07:16:33.585Z,97179.56
2023-08-31T07:19:00.396Z,97177.00
2023-08-31T07:21:27.491Z,97172.72
2023-08-31T07:23:54.349Z,97181.31
2023-08-31T07:26:21.017Z,97177.00
2023-08-31T07:28:47.983Z,97183.00
2023-08-31T07:31:14.789Z,97188.16
2023-08-31T07:33:41.658Z,97192.44
2023-08-31T07:36:08.542Z,97197.59
2023-08-31T07:38:35.244Z,97201.91
2023-08-31T07:41:01.871Z,97206.19
2023-08-31T07:43:28.511Z,97201.91
2023-08-31T07:45:55.155Z,97207.88
2023-08-31T07:48:21.703Z,97207.03
2023-08-31T07:50:49.832Z,97203.59
2023-08-31T07:53:17.086Z,97179.56
2023-08-31T07:55:48.567Z,97166.72
2023-08-31T07:58:15.126Z,97189.03
2023-08-31T08:00:41.745Z,97194.16
2023-08-31T08:03:08.394Z,97193.28
2023-08-31T08:05:35.026Z,97205.28
2023-08-31T08:08:01.586Z,97205.28
2023-08-31T08:10:28.088Z,97215.56
2023-08-31T08:12:54.593Z,97219.88
2023-08-31T08:15:21.177Z,97226.72
2023-08-31T08:17:48.407Z,97231.00
2023-08-31T08:20:15.046Z,97241.28
2023-08-31T08:22:41.594Z,97237.88
2023-08-31T08:25:08.509Z,97237.03
2023-08-31T08:27:35.942Z,97240.44
2023-08-31T08:30:03.782Z,97242.16
2023-08-31T08:32:30.323Z,97243.84
2023-08-31T08:34:56.933Z,97236.16
2023-08-31T08:37:23.495Z,97234.44
2023-08-31T08:39:52.556Z,97240.44
2023-08-31T08:42:20.548Z,97248.19
2023-08-31T08:44:47.143Z,97249.88
2023-08-31T08:47:13.741Z,97251.56
2023-08-31T08:49:40.290Z,97260.16
2023-08-31T08:52:06.892Z,97266.19
2023-08-31T08:54:33.464Z,97267.88
2023-08-31T08:57:00.112Z,97269.59
2023-08-31T08:59:26.697Z,97276.47
2023-08-31T09:01:53.277Z,97285.00
2023-08-31T09:04:20.113Z,97277.28
2023-08-31T09:06:46.726Z,97278.16
2023-08-31T09:09:13.342Z,97282.44
2023-08-31T09:11:39.930Z,97281.63
2023-08-31T09:14:19.474Z,97279.88
2023-08-31T09:16:50.251Z,97278.16
2023-08-31T09:19:24.398Z,97284.16
2023-08-31T09:21:51.726Z,97287.59
2023-08-31T09:24:19.314Z,97283.28
2023-08-31T09:26:47.529Z,97285.88
2023-08-31T09:29:14.081Z,97285.00
2023-08-31T09:31:47.987Z,97285.00
2023-08-31T09:34:18.362Z,97279.88
2023-08-31T09:36:45.106Z,97270.41
2023-08-31T09:39:12.488Z,97261.03
2023-08-31T09:41:56.926Z,97267.88
2023-08-31T09:44:23.504Z,97264.44
2023-08-31T09:46:50.065Z,97269.56
2023-08-31T09:49:17.713Z,97272.16
2023-08-31T09:51:49.582Z,97281.63
2023-08-31T09:54:20.018Z,97278.16
2023-08-31T09:56:47.416Z,97270.44
2023-08-31T09:59:15.128Z,97278.16
2023-08-31T10:01:42.302Z,97266.16
2023-08-31T10:04:09.902Z,97272.16
2023-08-31T10:06:37.274Z,97271.31
2023-08-31T10:09:04.791Z,97272.16
2023-08-31T10:11:31.884Z,97259.22
2023-08-31T10:13:58.805Z,97273.88
2023-08-31T10:16:28.623Z,97273.03
2023-08-31T10:18:58.295Z,97266.16
2023-08-31T10:21:24.899Z,97254.13
2023-08-31T10:23:51.732Z,97255.00
2023-08-31T10:26:25.001Z,97255.00
2023-08-31T10:28:52.234Z,97255.88
2023-08-31T10:31:19.191Z,97261.03
2023-08-31T10:33:46.754Z,97261.03
2023-08-31T10:36:17.877Z,97266.16
2023-08-31T10:38:48.561Z,97254.13
2023-08-31T10:41:14.984Z,97258.44
2023-08-31T10:43:47.411Z,97252.44
2023-08-31T10:46:36.034Z,97249.03
2023-08-31T10:49:02.577Z,97234.38
2023-08-31T10:51:31.244Z,97249.91
2023-08-31T10:54:32.008Z,97252.47
2023-08-31T10:56:58.485Z,97249.91
2023-08-31T10:59:26.559Z,97248.19
2023-08-31T11:02:00.960Z,97244.75
2023-08-31T11:04:30.760Z,97247.31
2023-08-31T11:07:17.226Z,97258.47
2023-08-31T11:09:44.393Z,97262.75
2023-08-31T11:12:11.381Z,97259.28
2023-08-31T11:14:38.006Z,97256.72
2023-08-31T11:17:07.647Z,97246.44
2023-08-31T11:19:34.890Z,97253.31
2023-08-31T11:22:03.330Z,97253.31
2023-08-31T11:24:33.261Z,97248.16
2023-08-31T11:26:59.973Z,97249.00
2023-08-31T11:29:26.514Z,97256.69
2023-08-31T11:31:53.100Z,97240.44
2023-08-31T11:34:20.348Z,97241.25
2023-08-31T11:36:47.597Z,97240.44
2023-08-31T11:39:14.455Z,97242.16
2023-08-31T11:41:44.576Z,97249.88
2023-08-31T11:44:12.493Z,97243.00
2023-08-31T11:46:39.590Z,97256.69
2023-08-31T11:49:06.814Z,97243.03
2023-08-31T11:51:34.753Z,97259.25
2023-08-31T11:54:04.968Z,97262.72
2023-08-31T11:56:44.471Z,97265.28
2023-08-31T11:59:13.162Z,97263.56
2023-08-31T12:01:41.107Z,97268.72
2023-08-31T12:04:14.000Z,97257.56
2023-08-31T12:06:40.820Z,97265.28
2023-08-31T12:09:10.936Z,97262.72
2023-08-31T12:11:37.572Z,97269.56
2023-08-31T12:14:05.436Z,97263.59
2023-08-31T12:16:36.290Z,97264.44
2023-08-31T12:19:04.963Z,97259.28
2023-08-31T12:21:34.489Z,97256.69
2023-08-31T12:24:03.552Z,97247.22
2023-08-31T12:26:31.532Z,97253.31
2023-08-31T12:28:58.168Z,97264.41
2023-08-31T12:31:24.996Z,97262.72
2023-08-31T12:33:51.659Z,97258.44
2023-08-31T12:36:18.251Z,97256.69
2023-08-31T12:38:44.844Z,97258.44
2023-08-31T12:41:11.417Z,97261.88
2023-08-31T12:43:38.197Z,97251.56
2023-08-31T12:46:06.704Z,97258.44
2023-08-31T12:48:36.603Z,97261.03
2023-08-31T12:51:03.431Z,97272.16
2023-08-31T12:53:29.977Z,97263.59
2023-08-31T12:55:56.522Z,97266.16
2023-08-31T12:58:23.695Z,97264.41
2023-08-31T13:00:51.663Z,97266.16
2023-08-31T13:03:18.356Z,97265.28
2023-08-31T13:05:44.923Z,97260.16
2023-08-31T13:08:11.932Z,97256.69
2023-08-31T13:10:38.946Z,97265.28
2023-08-31T13:13:05.483Z,97262.72
2023-08-31T13:15:34.927Z,97261.84
2023-08-31T13:18:01.602Z,97267.00
2023-08-31T13:20:28.514Z,97273.00
2023-08-31T13:22:55.100Z,97270.44
2023-08-31T13:25:21.716Z,97261.81
2023-08-31T13:27:48.290Z,97268.75
2023-08-31T13:30:14.861Z,97267.00
2023-08-31T13:32:41.687Z,97270.44
2023-08-31T13:35:08.897Z,97269.56
2023-08-31T13:37:35.620Z,97279.03
2023-08-31T13:40:02.429Z,97274.72
2023-08-31T13:42:34.512Z,97279.03
2023-08-31T13:45:01.069Z,97273.00
2023-08-31T13:47:27.637Z,97269.56
2023-08-31T13:49:54.205Z,97271.31
2023-08-31T13:52:22.397Z,97267.88
2023-08-31T13:54:48.972Z,97266.16
2023-08-31T13:57:18.538Z,97271.31
2023-08-31T13:59:45.628Z,97265.31
2023-08-31T14:02:12.118Z,97266.19
2023-08-31T14:04:38.625Z,97261.03
2023-08-31T14:07:05.185Z,97268.75
2023-08-31T14:09:32.922Z,97261.03
2023-08-31T14:11:59.692Z,97267.88
2023-08-31T14:14:26.396Z,97264.44
2023-08-31T14:16:53.025Z,97255.88
2023-08-31T14:19:21.114Z,97249.00
2023-08-31T14:21:48.956Z,97255.88
2023-08-31T14:24:15.546Z,97250.72
2023-08-31T14:26:42.057Z,97259.28
2023-08-31T14:29:08.597Z,97259.28
2023-08-31T14:31:35.140Z,97262.72
2023-08-31T14:34:01.901Z,97262.72
2023-08-31T14:36:28.515Z,97265.28
2023-08-31T14:38:55.132Z,97266.97
2023-08-31T14:41:21.747Z,97266.97
2023-08-31T14:43:48.309Z,97272.13
2023-08-31T14:46:14.907Z,97273.00
2023-08-31T14:48:41.544Z,97270.41
2023-08-31T14:51:10.084Z,97271.28
2023-08-31T14:53:36.677Z,97264.41
2023-08-31T14:56:04.785Z,97264.41
2023-08-31T14:58:31.345Z,97266.97
2023-08-31T15:00:58.060Z,97265.28
2023-08-31T15:03:25.255Z,97264.41
2023-08-31T15:05:51.950Z,97262.72
2023-08-31T15:08:18.504Z,97272.13
2023-08-31T15:10:45.153Z,97266.97
2023-08-31T15:13:11.749Z,97260.13
2023-08-31T15:15:38.475Z,97274.72
2023-08-31T15:18:06.146Z,97272.13
2023-08-31T15:20:32.775Z,97277.25
2023-08-31T15:22:59.692Z,97271.28
2023-08-31T15:25:26.361Z,97275.56
2023-08-31T15:27:53.043Z,97273.88
2023-08-31T15:30:19.635Z,97277.25
2023-08-31T15:32:46.231Z,97269.56
2023-08-31T15:35:12.949Z,97270.41
2023-08-31T15:37:39.504Z,97264.41
2023-08-31T15:40:06.659Z,97271.28
2023-08-31T15:42:33.298Z,97261.00
2023-08-31T15:45:00.318Z,97267.84
2023-08-31T15:47:27.118Z,97273.00
2023-08-31T15:49:53.754Z,97265.28
2023-08-31T15:52:20.359Z,97271.28
2023-08-31T15:54:46.910Z,97266.16
2023-08-31T15:57:13.483Z,97273.00
2023-08-31T15:59:40.840Z,97277.25
2023-08-31T16:02:07.566Z,97272.13
2023-08-31T16:04:34.776Z,97274.69
2023-08-31T16:07:01.377Z,97273.00
2023-08-31T16:09:28.061Z,97272.13
2023-08-31T16:11:54.650Z,97264.38
2023-08-31T16:14:21.206Z,97271.28
2023-08-31T16:16:47.806Z,97269.56
2023-08-31T16:19:14.385Z,97284.13
2023-08-31T16:21:41.076Z,97268.69
2023-08-31T16:24:07.640Z,97272.13
2023-08-31T16:26:34.174Z,97273.84
2023-08-31T16:29:00.777Z,97263.56
2023-08-31T16:31:27.283Z,97270.41
2023-08-31T16:33:53.890Z,97268.72
2023-08-31T16:36:21.274Z,97265.25
2023-08-31T16:38:47.894Z,97269.56
2023-08-31T16:41:14.445Z,97263.56
2023-08-31T16:43:42.691Z,97259.25
2023-08-31T16:46:09.359Z,97261.00
2023-08-31T16:48:35.894Z,97261.84
2023-08-31T16:51:02.462Z,97263.56
2023-08-31T16:53:29.013Z,97262.72
2023-08-31T16:55:55.839Z,97266.13
2023-08-31T16:58:22.484Z,97262.69
2023-08-31T17:00:49.326Z,97260.13
2023-08-31T17:03:16.408Z,97260.13
2023-08-31T17:05:43.038Z,97261.00
2023-08-31T17:08:09.595Z,97255.88
2023-08-31T17:10:39.264Z,97253.28
2023-08-31T17:13:05.804Z,97255.00
2023-08-31T17:15:32.608Z,97254.13
2023-08-31T17:17:59.204Z,97258.44
2023-08-31T17:20:26.869Z,97258.44
2023-08-31T17:22:53.630Z,97258.44
2023-08-31T17:25:21.016Z,97257.56
2023-08-31T17:27:47.535Z,97256.69
2023-08-31T17:30:14.206Z,97259.25
2023-08-31T17:32:40.826Z,97261.81
2023-08-31T17:35:07.893Z,97266.97
2023-08-31T17:37:35.017Z,97262.69
2023-08-31T17:40:05.462Z,97266.13
2023-08-31T17:42:31.984Z,97262.69
2023-08-31T17:44:58.619Z,97264.38
2023-08-31T17:47:25.188Z,97255.81
2023-08-31T17:49:51.845Z,97258.38
2023-08-31T17:52:18.513Z,97266.97
2023-08-31T17:54:45.098Z,97272.09
2023-08-31T17:57:11.830Z,97276.41
2023-08-31T17:59:38.595Z,97283.25
2023-08-31T18:02:05.303Z,97283.25
2023-08-31T18:04:32.733Z,97297.81
2023-08-31T18:06:59.254Z,97283.25
2023-08-31T18:09:31.182Z,97290.97
2023-08-31T18:11:57.841Z,97293.53
2023-08-31T18:14:24.346Z,97290.09
2023-08-31T18:16:50.868Z,97294.41
2023-08-31T18:19:17.863Z,97291.84
2023-08-31T18:21:44.414Z,97293.53
2023-08-31T18:24:10.942Z,97297.81
2023-08-31T18:26:37.553Z,97302.97
2023-08-31T18:29:04.249Z,97304.69
2023-08-31T18:31:30.874Z,97310.69
2023-08-31T18:33:57.533Z,97310.69
2023-08-31T18:36:24.093Z,97313.25
2023-08-31T18:38:50.661Z,97308.09
2023-08-31T18:41:17.237Z,97320.94
2023-08-31T18:43:46.286Z,97314.09
2023-08-31T18:46:12.903Z,97324.41
2023-08-31T18:48:39.653Z,97327.84
2023-08-31T18:51:06.184Z,97333.81
2023-08-31T18:53:32.705Z,97325.28
2023-08-31T18:56:01.973Z,97329.56
2023-08-31T18:58:28.988Z,97333.81
2023-08-31T19:00:56.992Z,97335.56
2023-08-31T19:03:23.587Z,97339.84
2023-08-31T19:05:51.967Z,97340.69
2023-08-31T19:08:18.905Z,97343.28
2023-08-31T19:10:45.448Z,97345.84
2023-08-31T19:13:12.048Z,97354.38
2023-08-31T19:15:38.611Z,97335.47
2023-08-31T19:18:07.643Z,97350.13
2023-08-31T19:20:35.180Z,97351.00
2023-08-31T19:23:03.741Z,97363.00
2023-08-31T19:25:31.628Z,97359.53
2023-08-31T19:28:05.265Z,97357.81
2023-08-31T19:30:31.911Z,97367.25
2023-08-31T19:32:58.671Z,97350.91
2023-08-31T19:35:56.086Z,97369.81
2023-08-31T19:38:12.354Z,97378.41
2023-08-31T19:40:39.042Z,97380.09
2023-08-31T19:43:05.661Z,97363.84
2023-08-31T19:45:32.235Z,97371.56
2023-08-31T19:47:58.850Z,97370.69
2023-08-31T19:50:27.642Z,97372.41
2023-08-31T19:52:54.279Z,97371.56
2023-08-31T19:55:21.025Z,97367.25
2023-08-31T19:57:47.535Z,97369.00
2023-08-31T20:00:15.633Z,97368.97
2023-08-31T20:02:42.222Z,97374.97
2023-08-31T20:05:08.873Z,97380.97
2023-08-31T20:07:35.491Z,97379.28
2023-08-31T20:10:03.880Z,97375.81
2023-08-31T20:12:30.573Z,97380.97
2023-08-31T20:14:57.151Z,97376.69
2023-08-31T20:17:23.722Z,97378.41
2023-08-31T20:19:50.292Z,97374.16
2023-08-31T20:22:16.786Z,97377.56
2023-08-31T20:24:43.314Z,97379.25
2023-08-31T20:27:09.903Z,97379.31
2023-08-31T20:29:36.771Z,97378.44
2023-08-31T20:32:05.460Z,97378.41
2023-08-31T20:34:32.214Z,97386.13
2023-08-31T20:37:01.380Z,97383.56
2023-08-31T20:39:29.136Z,97390.41
2023-08-31T20:41:55.812Z,97392.97
2023-08-31T20:44:22.404Z,97398.09
2023-08-31T20:46:49.288Z,97392.94
2023-08-31T20:49:16.302Z,97403.25
2023-08-31T20:51:44.138Z,97407.53
2023-08-31T20:54:11.655Z,97412.69
2023-08-31T20:56:40.093Z,97408.38
2023-08-31T20:59:06.684Z,97409.25
2023-08-31T21:01:33.223Z,97412.66
2023-08-31T21:04:00.308Z,97413.50
2023-08-31T21:06:29.831Z,97418.66
2023-08-31T21:08:56.432Z,97410.91
2023-08-31T21:11:24.152Z,97415.25
2023-08-31T21:13:53.844Z,97417.81
2023-08-31T21:16:23.287Z,97404.91
2023-08-31T21:18:51.198Z,97408.34
2023-08-31T21:21:17.726Z,97407.50
2023-08-31T21:23:44.305Z,97403.19
2023-08-31T21:26:10.843Z,97405.75
2023-08-31T21:28:37.374Z,97410.06
2023-08-31T21:31:04.793Z,97406.63
2023-08-31T21:33:31.914Z,97409.19
2023-08-31T21:36:00.261Z,97415.22
2023-08-31T21:38:26.819Z,97404.94
2023-08-31T21:40:53.345Z,97396.31
2023-08-31T21:43:19.911Z,97405.75
2023-08-31T21:45:46.419Z,97410.91
2023-08-31T21:48:13.252Z,97408.31
2023-08-31T21:50:41.171Z,97413.47
2023-08-31T21:53:07.981Z,97404.03
2023-08-31T21:55:34.636Z,97413.47
2023-08-31T21:58:01.176Z,97411.75
2023-08-31T22:00:27.735Z,97421.19
2023-08-31T22:02:54.328Z,97425.50
2023-08-31T22:05:22.118Z,97420.38
2023-08-31T22:07:49.178Z,97427.19
2023-08-31T22:10:16.209Z,97440.06
2023-08-31T22:12:42.944Z,97434.03
2023-08-31T22:15:16.999Z,97440.06
2023-08-31T22:17:47.649Z,97439.19
2023-08-31T22:20:15.338Z,97434.03
2023-08-31T22:22:43.016Z,97436.63
2023-08-31T22:25:11.087Z,97434.91
2023-08-31T22:27:37.855Z,97434.03
2023-08-31T22:30:04.942Z,97432.34
2023-08-31T22:32:31.617Z,97434.03
2023-08-31T22:34:58.221Z,97430.63
2023-08-31T22:37:25.618Z,97435.78
2023-08-31T22:39:52.723Z,97436.63
2023-08-31T22:42:19.393Z,97437.47
2023-08-31T22:44:46.084Z,97436.59
2023-08-31T22:47:12.614Z,97438.34
2023-08-31T22:49:39.133Z,97442.63
2023-08-31T22:52:11.691Z,97445.19
2023-08-31T22:54:39.181Z,97433.19
2023-08-31T22:57:15.336Z,97438.34
2023-08-31T22:59:42.893Z,97441.75
2023-08-31T23:02:09.401Z,97444.31
2023-08-31T23:04:35.949Z,97440.03
2023-08-31T23:07:02.495Z,97441.75
2023-08-31T23:09:29.888Z,97435.75
2023-08-31T23:11:59.189Z,97435.72
2023-08-31T23:14:25.824Z,97442.63
2023-08-31T23:16:52.328Z,97434.00
2023-08-31T23:19:18.940Z,97435.72
2023-08-31T23:21:46.882Z,97432.31
2023-08-31T23:24:13.778Z,97433.19
2023-08-31T23:26:40.403Z,97424.59
2023-08-31T23:29:07.924Z,97425.47
2023-08-31T23:31:35.370Z,97422.06
2023-08-31T23:34:02.224Z,97427.19
2023-08-31T23:36:28.818Z,97432.34
2023-08-31T23:38:55.354Z,97436.63
2023-08-31T23:41:21.916Z,97433.19
2023-08-31T23:43:48.441Z,97439.19
2023-08-31T23:46:15.050Z,97445.19
2023-08-31T23:48:41.659Z,97437.47
2023-08-31T23:51:08.371Z,97440.03
2023-08-31T23:53:34.942Z,97436.59
2023-08-31T23:56:08.127Z,97445.19
2023-08-31T23:58:34.714Z,97434.91
